sensor_id;sensor_type;location;lat;lon;timestamp;P1;durP1;ratioP1;P2;durP2;ratioP2
42590;SDS011;28218;53.342;-6.216;2023-05-25T00:01:12;2.53;;;1.40;;
42590;SDS011;28218;53.342;-6.216;2023-05-25T00:03:41;1.55;;;1.45;;
42590;SDS011;28218;53.342;-6.216;2023-05-25T00:06:11;2.17;;;1.50;;
42590;SDS011;28218;53.342;-6.216;2023-05-25T00:08:41;2.33;;;1.50;;
42590;SDS011;28218;53.342;-6.216;2023-05-25T00:11:09;2.50;;;1.40;;
42590;SDS011;28218;53.342;-6.216;2023-05-25T00:13:37;4.45;;;1.40;;
42590;SDS011;28218;53.342;-6.216;2023-05-25T00:16:07;5.05;;;2.00;;
42590;SDS011;28218;53.342;-6.216;2023-05-25T00:18:35;6.55;;;1.60;;
42590;SDS011;28218;53.342;-6.216;2023-05-25T00:21:04;3.20;;;1.65;;
42590;SDS011;28218;53.342;-6.216;2023-05-25T00:23:32;1.52;;;1.20;;
42590;SDS011;28218;53.342;-6.216;2023-05-25T00:26:01;3.13;;;1.70;;
42590;SDS011;28218;53.342;-6.216;2023-05-25T00:28:30;2.22;;;1.70;;
42590;SDS011;28218;53.342;-6.216;2023-05-25T00:30:58;1.83;;;1.30;;
42590;SDS011;28218;53.342;-6.216;2023-05-25T00:33:28;1.27;;;1.17;;
42590;SDS011;28218;53.342;-6.216;2023-05-25T00:35:56;1.63;;;1.48;;
42590;SDS011;28218;53.342;-6.216;2023-05-25T00:38:25;2.90;;;1.40;;
42590;SDS011;28218;53.342;-6.216;2023-05-25T00:40:54;3.97;;;1.27;;
42590;SDS011;28218;53.342;-6.216;2023-05-25T00:43:22;3.60;;;1.42;;
42590;SDS011;28218;53.342;-6.216;2023-05-25T00:45:51;1.42;;;1.33;;
42590;SDS011;28218;53.342;-6.216;2023-05-25T00:48:19;2.78;;;1.40;;
42590;SDS011;28218;53.342;-6.216;2023-05-25T00:50:51;4.93;;;1.42;;
42590;SDS011;28218;53.342;-6.216;2023-05-25T00:53:23;2.47;;;1.75;;
42590;SDS011;28218;53.342;-6.216;2023-05-25T00:55:52;3.42;;;1.40;;
42590;SDS011;28218;53.342;-6.216;2023-05-25T00:58:26;4.85;;;1.23;;
42590;SDS011;28218;53.342;-6.216;2023-05-25T01:00:57;1.55;;;1.42;;
42590;SDS011;28218;53.342;-6.216;2023-05-25T01:03:30;3.75;;;2.03;;
42590;SDS011;28218;53.342;-6.216;2023-05-25T01:06:05;1.63;;;1.45;;
42590;SDS011;28218;53.342;-6.216;2023-05-25T01:08:39;1.40;;;1.30;;
42590;SDS011;28218;53.342;-6.216;2023-05-25T01:11:11;2.05;;;1.40;;
42590;SDS011;28218;53.342;-6.216;2023-05-25T01:13:41;2.63;;;1.30;;
42590;SDS011;28218;53.342;-6.216;2023-05-25T01:16:11;3.25;;;1.30;;
42590;SDS011;28218;53.342;-6.216;2023-05-25T01:18:42;1.85;;;1.42;;
42590;SDS011;28218;53.342;-6.216;2023-05-25T01:21:13;4.05;;;1.88;;
42590;SDS011;28218;53.342;-6.216;2023-05-25T01:23:46;6.05;;;1.65;;
42590;SDS011;28218;53.342;-6.216;2023-05-25T01:26:19;2.53;;;1.33;;
42590;SDS011;28218;53.342;-6.216;2023-05-25T01:28:53;3.42;;;1.70;;
42590;SDS011;28218;53.342;-6.216;2023-05-25T01:31:22;3.75;;;2.03;;
42590;SDS011;28218;53.342;-6.216;2023-05-25T01:33:51;3.97;;;2.47;;
42590;SDS011;28218;53.342;-6.216;2023-05-25T01:36:21;3.47;;;1.45;;
42590;SDS011;28218;53.342;-6.216;2023-05-25T01:38:49;1.77;;;1.63;;
42590;SDS011;28218;53.342;-6.216;2023-05-25T01:41:18;1.63;;;1.40;;
42590;SDS011;28218;53.342;-6.216;2023-05-25T01:43:46;1.70;;;1.60;;
42590;SDS011;28218;53.342;-6.216;2023-05-25T01:46:17;3.22;;;1.60;;
42590;SDS011;28218;53.342;-6.216;2023-05-25T01:48:51;5.38;;;1.55;;
42590;SDS011;28218;53.342;-6.216;2023-05-25T01:51:35;3.53;;;1.75;;
42590;SDS011;28218;53.342;-6.216;2023-05-25T01:54:12;4.00;;;2.10;;
42590;SDS011;28218;53.342;-6.216;2023-05-25T01:56:45;1.85;;;1.50;;
42590;SDS011;28218;53.342;-6.216;2023-05-25T01:59:19;6.05;;;1.88;;
42590;SDS011;28218;53.342;-6.216;2023-05-25T02:01:49;4.18;;;1.83;;
42590;SDS011;28218;53.342;-6.216;2023-05-25T02:04:19;3.38;;;1.52;;
42590;SDS011;28218;53.342;-6.216;2023-05-25T02:06:51;6.30;;;2.33;;
42590;SDS011;28218;53.342;-6.216;2023-05-25T02:09:19;2.30;;;1.70;;
42590;SDS011;28218;53.342;-6.216;2023-05-25T02:11:48;4.15;;;2.13;;
42590;SDS011;28218;53.342;-6.216;2023-05-25T02:14:16;1.63;;;1.52;;
42590;SDS011;28218;53.342;-6.216;2023-05-25T02:16:44;3.88;;;2.10;;
42590;SDS011;28218;53.342;-6.216;2023-05-25T02:19:12;2.25;;;1.70;;
42590;SDS011;28218;53.342;-6.216;2023-05-25T02:21:41;5.45;;;2.30;;
42590;SDS011;28218;53.342;-6.216;2023-05-25T02:24:11;3.95;;;2.28;;
42590;SDS011;28218;53.342;-6.216;2023-05-25T02:26:39;6.15;;;2.40;;
42590;SDS011;28218;53.342;-6.216;2023-05-25T02:29:07;4.28;;;1.88;;
42590;SDS011;28218;53.342;-6.216;2023-05-25T02:31:37;3.22;;;2.08;;
42590;SDS011;28218;53.342;-6.216;2023-05-25T02:34:05;3.83;;;2.22;;
42590;SDS011;28218;53.342;-6.216;2023-05-25T02:36:36;4.38;;;2.15;;
42590;SDS011;28218;53.342;-6.216;2023-05-25T02:39:04;3.70;;;1.80;;
42590;SDS011;28218;53.342;-6.216;2023-05-25T02:41:34;4.20;;;1.98;;
42590;SDS011;28218;53.342;-6.216;2023-05-25T02:44:02;3.00;;;2.15;;
42590;SDS011;28218;53.342;-6.216;2023-05-25T02:46:30;3.05;;;2.03;;
42590;SDS011;28218;53.342;-6.216;2023-05-25T02:49:00;2.35;;;2.03;;
42590;SDS011;28218;53.342;-6.216;2023-05-25T02:51:28;2.28;;;2.05;;
42590;SDS011;28218;53.342;-6.216;2023-05-25T02:53:57;3.42;;;2.55;;
42590;SDS011;28218;53.342;-6.216;2023-05-25T02:56:26;4.93;;;2.28;;
42590;SDS011;28218;53.342;-6.216;2023-05-25T02:58:56;8.55;;;2.30;;
42590;SDS011;28218;53.342;-6.216;2023-05-25T03:01:24;3.05;;;2.08;;
42590;SDS011;28218;53.342;-6.216;2023-05-25T03:03:56;6.47;;;2.67;;
42590;SDS011;28218;53.342;-6.216;2023-05-25T03:06:25;3.65;;;2.22;;
42590;SDS011;28218;53.342;-6.216;2023-05-25T03:08:53;5.93;;;2.25;;
42590;SDS011;28218;53.342;-6.216;2023-05-25T03:11:21;4.07;;;1.92;;
42590;SDS011;28218;53.342;-6.216;2023-05-25T03:13:50;6.07;;;2.90;;
42590;SDS011;28218;53.342;-6.216;2023-05-25T03:16:20;3.28;;;2.30;;
42590;SDS011;28218;53.342;-6.216;2023-05-25T03:18:49;4.72;;;2.60;;
42590;SDS011;28218;53.342;-6.216;2023-05-25T03:21:17;4.65;;;2.53;;
42590;SDS011;28218;53.342;-6.216;2023-05-25T03:23:47;7.28;;;2.78;;
42590;SDS011;28218;53.342;-6.216;2023-05-25T03:26:16;6.45;;;2.60;;
42590;SDS011;28218;53.342;-6.216;2023-05-25T03:28:44;5.95;;;2.38;;
42590;SDS011;28218;53.342;-6.216;2023-05-25T03:31:12;4.35;;;2.58;;
42590;SDS011;28218;53.342;-6.216;2023-05-25T03:33:42;2.63;;;2.30;;
42590;SDS011;28218;53.342;-6.216;2023-05-25T03:36:11;5.10;;;2.33;;
42590;SDS011;28218;53.342;-6.216;2023-05-25T03:38:42;6.22;;;2.00;;
42590;SDS011;28218;53.342;-6.216;2023-05-25T03:41:11;6.00;;;2.10;;
42590;SDS011;28218;53.342;-6.216;2023-05-25T03:43:39;11.52;;;2.55;;
42590;SDS011;28218;53.342;-6.216;2023-05-25T03:46:07;2.75;;;1.67;;
42590;SDS011;28218;53.342;-6.216;2023-05-25T03:48:37;12.02;;;2.53;;
42590;SDS011;28218;53.342;-6.216;2023-05-25T03:51:06;4.55;;;2.70;;
42590;SDS011;28218;53.342;-6.216;2023-05-25T03:53:34;8.90;;;2.75;;
42590;SDS011;28218;53.342;-6.216;2023-05-25T03:56:03;4.65;;;1.92;;
42590;SDS011;28218;53.342;-6.216;2023-05-25T03:58:31;4.85;;;2.53;;
42590;SDS011;28218;53.342;-6.216;2023-05-25T04:01:00;6.00;;;2.20;;
42590;SDS011;28218;53.342;-6.216;2023-05-25T04:03:30;4.40;;;2.10;;
42590;SDS011;28218;53.342;-6.216;2023-05-25T04:05:59;3.47;;;2.00;;
42590;SDS011;28218;53.342;-6.216;2023-05-25T04:08:29;4.45;;;2.00;;
42590;SDS011;28218;53.342;-6.216;2023-05-25T04:10:57;7.97;;;2.60;;
42590;SDS011;28218;53.342;-6.216;2023-05-25T04:13:25;8.70;;;3.78;;
42590;SDS011;28218;53.342;-6.216;2023-05-25T04:15:53;4.28;;;2.22;;
42590;SDS011;28218;53.342;-6.216;2023-05-25T04:18:22;5.40;;;2.53;;
42590;SDS011;28218;53.342;-6.216;2023-05-25T04:20:50;2.88;;;2.38;;
42590;SDS011;28218;53.342;-6.216;2023-05-25T04:23:20;3.42;;;2.63;;
42590;SDS011;28218;53.342;-6.216;2023-05-25T04:25:50;7.70;;;2.55;;
42590;SDS011;28218;53.342;-6.216;2023-05-25T04:28:19;5.15;;;2.80;;
42590;SDS011;28218;53.342;-6.216;2023-05-25T04:30:48;4.25;;;2.53;;
42590;SDS011;28218;53.342;-6.216;2023-05-25T04:33:16;6.65;;;2.38;;
42590;SDS011;28218;53.342;-6.216;2023-05-25T04:35:44;7.32;;;2.30;;
42590;SDS011;28218;53.342;-6.216;2023-05-25T04:38:14;5.45;;;2.50;;
42590;SDS011;28218;53.342;-6.216;2023-05-25T04:40:43;3.42;;;2.58;;
42590;SDS011;28218;53.342;-6.216;2023-05-25T04:43:14;8.38;;;2.92;;
42590;SDS011;28218;53.342;-6.216;2023-05-25T04:45:43;6.47;;;2.33;;
42590;SDS011;28218;53.342;-6.216;2023-05-25T04:48:13;15.60;;;2.88;;
42590;SDS011;28218;53.342;-6.216;2023-05-25T04:50:41;6.88;;;2.53;;
42590;SDS011;28218;53.342;-6.216;2023-05-25T04:53:09;4.97;;;2.65;;
42590;SDS011;28218;53.342;-6.216;2023-05-25T04:55:37;5.88;;;2.28;;
42590;SDS011;28218;53.342;-6.216;2023-05-25T04:58:06;7.05;;;2.15;;
42590;SDS011;28218;53.342;-6.216;2023-05-25T05:00:35;7.15;;;2.78;;
42590;SDS011;28218;53.342;-6.216;2023-05-25T05:03:05;8.13;;;2.30;;
42590;SDS011;28218;53.342;-6.216;2023-05-25T05:05:34;4.03;;;2.42;;
42590;SDS011;28218;53.342;-6.216;2023-05-25T05:08:02;7.53;;;3.25;;
42590;SDS011;28218;53.342;-6.216;2023-05-25T05:10:31;5.95;;;3.65;;
42590;SDS011;28218;53.342;-6.216;2023-05-25T05:12:59;5.65;;;2.50;;
42590;SDS011;28218;53.342;-6.216;2023-05-25T05:15:27;6.32;;;2.88;;
42590;SDS011;28218;53.342;-6.216;2023-05-25T05:17:57;8.80;;;2.70;;
42590;SDS011;28218;53.342;-6.216;2023-05-25T05:20:25;7.88;;;2.58;;
42590;SDS011;28218;53.342;-6.216;2023-05-25T05:22:53;8.85;;;2.95;;
42590;SDS011;28218;53.342;-6.216;2023-05-25T05:25:22;8.77;;;2.50;;
42590;SDS011;28218;53.342;-6.216;2023-05-25T05:27:50;4.00;;;2.78;;
42590;SDS011;28218;53.342;-6.216;2023-05-25T05:30:18;10.43;;;3.13;;
42590;SDS011;28218;53.342;-6.216;2023-05-25T05:32:47;5.45;;;2.65;;
42590;SDS011;28218;53.342;-6.216;2023-05-25T05:35:17;9.82;;;2.58;;
42590;SDS011;28218;53.342;-6.216;2023-05-25T05:37:45;11.15;;;3.40;;
42590;SDS011;28218;53.342;-6.216;2023-05-25T05:40:13;11.35;;;3.17;;
42590;SDS011;28218;53.342;-6.216;2023-05-25T05:42:42;5.22;;;2.53;;
42590;SDS011;28218;53.342;-6.216;2023-05-25T05:45:10;9.95;;;2.95;;
42590;SDS011;28218;53.342;-6.216;2023-05-25T05:47:38;7.55;;;3.05;;
42590;SDS011;28218;53.342;-6.216;2023-05-25T05:50:07;9.57;;;2.85;;
42590;SDS011;28218;53.342;-6.216;2023-05-25T05:52:37;12.25;;;3.25;;
42590;SDS011;28218;53.342;-6.216;2023-05-25T05:55:05;11.90;;;3.00;;
42590;SDS011;28218;53.342;-6.216;2023-05-25T05:57:34;6.78;;;2.53;;
42590;SDS011;28218;53.342;-6.216;2023-05-25T06:00:03;7.38;;;2.65;;
42590;SDS011;28218;53.342;-6.216;2023-05-25T06:02:32;6.82;;;2.55;;
42590;SDS011;28218;53.342;-6.216;2023-05-25T06:05:03;8.43;;;2.58;;
42590;SDS011;28218;53.342;-6.216;2023-05-25T06:07:32;8.48;;;2.58;;
42590;SDS011;28218;53.342;-6.216;2023-05-25T06:10:02;15.85;;;3.95;;
42590;SDS011;28218;53.342;-6.216;2023-05-25T06:12:30;8.57;;;3.25;;
42590;SDS011;28218;53.342;-6.216;2023-05-25T06:14:58;13.43;;;4.72;;
42590;SDS011;28218;53.342;-6.216;2023-05-25T06:17:27;8.57;;;3.20;;
42590;SDS011;28218;53.342;-6.216;2023-05-25T06:19:56;7.30;;;2.72;;
42590;SDS011;28218;53.342;-6.216;2023-05-25T06:22:24;8.23;;;2.65;;
42590;SDS011;28218;53.342;-6.216;2023-05-25T06:24:54;11.68;;;2.97;;
42590;SDS011;28218;53.342;-6.216;2023-05-25T06:27:24;16.05;;;3.25;;
42590;SDS011;28218;53.342;-6.216;2023-05-25T06:29:52;8.25;;;3.30;;
42590;SDS011;28218;53.342;-6.216;2023-05-25T06:32:20;7.60;;;2.00;;
42590;SDS011;28218;53.342;-6.216;2023-05-25T06:34:49;11.38;;;3.28;;
42590;SDS011;28218;53.342;-6.216;2023-05-25T06:37:17;10.57;;;4.18;;
42590;SDS011;28218;53.342;-6.216;2023-05-25T06:39:45;9.90;;;2.85;;
42590;SDS011;28218;53.342;-6.216;2023-05-25T06:42:13;9.40;;;2.78;;
42590;SDS011;28218;53.342;-6.216;2023-05-25T06:44:43;8.05;;;2.72;;
42590;SDS011;28218;53.342;-6.216;2023-05-25T06:47:11;12.98;;;3.03;;
42590;SDS011;28218;53.342;-6.216;2023-05-25T06:49:39;9.77;;;2.88;;
42590;SDS011;28218;53.342;-6.216;2023-05-25T06:52:07;21.83;;;5.18;;
42590;SDS011;28218;53.342;-6.216;2023-05-25T06:54:35;16.63;;;3.10;;
42590;SDS011;28218;53.342;-6.216;2023-05-25T06:57:06;9.65;;;2.95;;
42590;SDS011;28218;53.342;-6.216;2023-05-25T06:59:35;12.82;;;2.75;;
42590;SDS011;28218;53.342;-6.216;2023-05-25T07:02:05;9.80;;;3.58;;
42590;SDS011;28218;53.342;-6.216;2023-05-25T07:04:33;9.27;;;3.15;;
42590;SDS011;28218;53.342;-6.216;2023-05-25T07:07:01;17.00;;;2.97;;
42590;SDS011;28218;53.342;-6.216;2023-05-25T07:09:29;6.55;;;2.35;;
42590;SDS011;28218;53.342;-6.216;2023-05-25T07:11:58;12.55;;;3.60;;
42590;SDS011;28218;53.342;-6.216;2023-05-25T07:14:26;18.83;;;4.65;;
42590;SDS011;28218;53.342;-6.216;2023-05-25T07:16:54;13.95;;;3.42;;
42590;SDS011;28218;53.342;-6.216;2023-05-25T07:19:24;13.07;;;3.00;;
42590;SDS011;28218;53.342;-6.216;2023-05-25T07:21:52;12.13;;;2.97;;
42590;SDS011;28218;53.342;-6.216;2023-05-25T07:24:20;17.52;;;2.88;;
42590;SDS011;28218;53.342;-6.216;2023-05-25T07:26:49;14.20;;;3.20;;
42590;SDS011;28218;53.342;-6.216;2023-05-25T07:29:17;13.93;;;2.80;;
42590;SDS011;28218;53.342;-6.216;2023-05-25T07:31:45;7.47;;;2.75;;
42590;SDS011;28218;53.342;-6.216;2023-05-25T07:34:13;13.52;;;3.03;;
42590;SDS011;28218;53.342;-6.216;2023-05-25T07:36:43;12.55;;;3.85;;
42590;SDS011;28218;53.342;-6.216;2023-05-25T07:39:11;14.20;;;3.35;;
42590;SDS011;28218;53.342;-6.216;2023-05-25T07:41:39;15.18;;;3.10;;
42590;SDS011;28218;53.342;-6.216;2023-05-25T07:44:07;16.25;;;3.25;;
42590;SDS011;28218;53.342;-6.216;2023-05-25T07:46:36;14.23;;;3.92;;
42590;SDS011;28218;53.342;-6.216;2023-05-25T07:49:04;14.88;;;3.22;;
42590;SDS011;28218;53.342;-6.216;2023-05-25T07:51:37;8.77;;;2.42;;
42590;SDS011;28218;53.342;-6.216;2023-05-25T07:54:07;13.90;;;2.53;;
42590;SDS011;28218;53.342;-6.216;2023-05-25T07:56:35;11.48;;;3.15;;
42590;SDS011;28218;53.342;-6.216;2023-05-25T07:59:03;10.20;;;3.00;;
42590;SDS011;28218;53.342;-6.216;2023-05-25T08:01:32;9.50;;;2.65;;
42590;SDS011;28218;53.342;-6.216;2023-05-25T08:04:01;11.52;;;2.75;;
42590;SDS011;28218;53.342;-6.216;2023-05-25T08:06:29;9.75;;;2.83;;
42590;SDS011;28218;53.342;-6.216;2023-05-25T08:08:59;8.00;;;2.58;;
42590;SDS011;28218;53.342;-6.216;2023-05-25T08:11:31;18.13;;;2.90;;
42590;SDS011;28218;53.342;-6.216;2023-05-25T08:14:00;12.63;;;3.22;;
42590;SDS011;28218;53.342;-6.216;2023-05-25T08:16:28;9.00;;;2.95;;
42590;SDS011;28218;53.342;-6.216;2023-05-25T08:18:56;12.45;;;2.88;;
42590;SDS011;28218;53.342;-6.216;2023-05-25T08:21:27;13.43;;;2.65;;
42590;SDS011;28218;53.342;-6.216;2023-05-25T08:23:55;8.75;;;2.72;;
42590;SDS011;28218;53.342;-6.216;2023-05-25T08:26:23;15.43;;;2.80;;
42590;SDS011;28218;53.342;-6.216;2023-05-25T08:29:12;9.90;;;2.63;;
42590;SDS011;28218;53.342;-6.216;2023-05-25T08:31:40;6.65;;;1.80;;
42590;SDS011;28218;53.342;-6.216;2023-05-25T08:34:11;8.20;;;2.45;;
42590;SDS011;28218;53.342;-6.216;2023-05-25T08:36:39;8.52;;;2.42;;
42590;SDS011;28218;53.342;-6.216;2023-05-25T08:39:07;7.53;;;2.42;;
42590;SDS011;28218;53.342;-6.216;2023-05-25T08:41:36;7.63;;;2.05;;
42590;SDS011;28218;53.342;-6.216;2023-05-25T08:44:08;10.55;;;2.63;;
42590;SDS011;28218;53.342;-6.216;2023-05-25T08:46:38;9.60;;;3.03;;
42590;SDS011;28218;53.342;-6.216;2023-05-25T08:49:07;17.88;;;4.85;;
42590;SDS011;28218;53.342;-6.216;2023-05-25T08:51:37;7.03;;;2.30;;
42590;SDS011;28218;53.342;-6.216;2023-05-25T08:54:11;8.77;;;2.40;;
42590;SDS011;28218;53.342;-6.216;2023-05-25T08:56:40;7.53;;;2.47;;
42590;SDS011;28218;53.342;-6.216;2023-05-25T08:59:25;14.63;;;2.83;;
42590;SDS011;28218;53.342;-6.216;2023-05-25T09:02:04;5.30;;;2.15;;
42590;SDS011;28218;53.342;-6.216;2023-05-25T09:04:41;8.40;;;2.17;;
42590;SDS011;28218;53.342;-6.216;2023-05-25T09:07:10;7.63;;;2.47;;
42590;SDS011;28218;53.342;-6.216;2023-05-25T09:09:38;8.40;;;1.95;;
42590;SDS011;28218;53.342;-6.216;2023-05-25T09:12:08;10.15;;;2.15;;
42590;SDS011;28218;53.342;-6.216;2023-05-25T09:14:36;9.48;;;2.53;;
42590;SDS011;28218;53.342;-6.216;2023-05-25T09:17:12;5.80;;;2.58;;
42590;SDS011;28218;53.342;-6.216;2023-05-25T09:19:41;7.93;;;2.22;;
42590;SDS011;28218;53.342;-6.216;2023-05-25T09:22:09;7.43;;;2.80;;
42590;SDS011;28218;53.342;-6.216;2023-05-25T09:24:42;7.07;;;2.50;;
42590;SDS011;28218;53.342;-6.216;2023-05-25T09:27:11;14.77;;;2.72;;
42590;SDS011;28218;53.342;-6.216;2023-05-25T09:29:45;8.13;;;2.10;;
42590;SDS011;28218;53.342;-6.216;2023-05-25T09:32:16;11.07;;;2.92;;
42590;SDS011;28218;53.342;-6.216;2023-05-25T09:34:45;11.35;;;2.60;;
42590;SDS011;28218;53.342;-6.216;2023-05-25T09:37:14;7.07;;;2.33;;
42590;SDS011;28218;53.342;-6.216;2023-05-25T09:39:45;8.13;;;2.80;;
42590;SDS011;28218;53.342;-6.216;2023-05-25T09:42:14;12.95;;;2.78;;
42590;SDS011;28218;53.342;-6.216;2023-05-25T09:44:43;11.57;;;2.80;;
42590;SDS011;28218;53.342;-6.216;2023-05-25T09:47:11;9.80;;;2.88;;
42590;SDS011;28218;53.342;-6.216;2023-05-25T09:49:43;6.47;;;2.33;;
42590;SDS011;28218;53.342;-6.216;2023-05-25T09:52:13;8.35;;;2.53;;
42590;SDS011;28218;53.342;-6.216;2023-05-25T09:54:42;11.48;;;2.75;;
42590;SDS011;28218;53.342;-6.216;2023-05-25T09:57:12;13.45;;;2.10;;
42590;SDS011;28218;53.342;-6.216;2023-05-25T09:59:41;5.55;;;2.20;;
42590;SDS011;28218;53.342;-6.216;2023-05-25T10:02:10;8.23;;;1.70;;
42590;SDS011;28218;53.342;-6.216;2023-05-25T10:04:39;7.28;;;1.80;;
42590;SDS011;28218;53.342;-6.216;2023-05-25T10:07:09;11.82;;;2.65;;
42590;SDS011;28218;53.342;-6.216;2023-05-25T10:09:39;7.78;;;2.10;;
42590;SDS011;28218;53.342;-6.216;2023-05-25T10:12:08;7.53;;;2.15;;
42590;SDS011;28218;53.342;-6.216;2023-05-25T10:14:38;5.88;;;1.77;;
42590;SDS011;28218;53.342;-6.216;2023-05-25T10:17:07;9.60;;;2.35;;
42590;SDS011;28218;53.342;-6.216;2023-05-25T10:19:39;7.90;;;2.60;;
42590;SDS011;28218;53.342;-6.216;2023-05-25T10:22:15;8.15;;;2.47;;
42590;SDS011;28218;53.342;-6.216;2023-05-25T10:24:52;3.92;;;2.15;;
42590;SDS011;28218;53.342;-6.216;2023-05-25T10:27:24;9.60;;;2.17;;
42590;SDS011;28218;53.342;-6.216;2023-05-25T10:29:56;6.72;;;2.25;;
42590;SDS011;28218;53.342;-6.216;2023-05-25T10:32:26;7.50;;;1.85;;
42590;SDS011;28218;53.342;-6.216;2023-05-25T10:34:56;15.13;;;2.38;;
42590;SDS011;28218;53.342;-6.216;2023-05-25T10:37:27;9.40;;;2.38;;
42590;SDS011;28218;53.342;-6.216;2023-05-25T10:39:57;11.80;;;2.88;;
42590;SDS011;28218;53.342;-6.216;2023-05-25T10:42:28;10.60;;;3.70;;
42590;SDS011;28218;53.342;-6.216;2023-05-25T10:44:57;3.90;;;1.70;;
42590;SDS011;28218;53.342;-6.216;2023-05-25T10:47:26;8.55;;;3.08;;
42590;SDS011;28218;53.342;-6.216;2023-05-25T10:49:55;12.57;;;2.90;;
42590;SDS011;28218;53.342;-6.216;2023-05-25T10:52:28;9.93;;;2.42;;
42590;SDS011;28218;53.342;-6.216;2023-05-25T10:54:58;12.40;;;2.92;;
42590;SDS011;28218;53.342;-6.216;2023-05-25T10:57:29;8.90;;;2.00;;
42590;SDS011;28218;53.342;-6.216;2023-05-25T11:00:01;10.18;;;2.20;;
42590;SDS011;28218;53.342;-6.216;2023-05-25T11:02:46;5.18;;;2.00;;
42590;SDS011;28218;53.342;-6.216;2023-05-25T11:08:07;9.50;;;2.72;;
42590;SDS011;28218;53.342;-6.216;2023-05-25T11:13:36;3.72;;;1.70;;
42590;SDS011;28218;53.342;-6.216;2023-05-25T11:16:07;8.40;;;1.95;;
42590;SDS011;28218;53.342;-6.216;2023-05-25T11:18:51;15.18;;;2.85;;
42590;SDS011;28218;53.342;-6.216;2023-05-25T11:24:12;12.02;;;3.85;;
42590;SDS011;28218;53.342;-6.216;2023-05-25T11:26:51;10.75;;;2.58;;
42590;SDS011;28218;53.342;-6.216;2023-05-25T11:29:22;4.70;;;1.50;;
42590;SDS011;28218;53.342;-6.216;2023-05-25T11:31:53;9.10;;;1.67;;
42590;SDS011;28218;53.342;-6.216;2023-05-25T11:34:22;9.80;;;1.98;;
42590;SDS011;28218;53.342;-6.216;2023-05-25T11:36:54;6.93;;;2.47;;
42590;SDS011;28218;53.342;-6.216;2023-05-25T11:39:28;6.88;;;1.75;;
42590;SDS011;28218;53.342;-6.216;2023-05-25T11:42:00;8.77;;;2.42;;
42590;SDS011;28218;53.342;-6.216;2023-05-25T11:44:30;3.53;;;1.63;;
42590;SDS011;28218;53.342;-6.216;2023-05-25T11:47:00;6.85;;;1.92;;
42590;SDS011;28218;53.342;-6.216;2023-05-25T11:52:02;11.50;;;2.10;;
42590;SDS011;28218;53.342;-6.216;2023-05-25T11:54:34;10.35;;;2.20;;
42590;SDS011;28218;53.342;-6.216;2023-05-25T11:57:02;12.43;;;3.03;;
42590;SDS011;28218;53.342;-6.216;2023-05-25T11:59:31;6.32;;;2.28;;
42590;SDS011;28218;53.342;-6.216;2023-05-25T12:02:00;10.52;;;2.67;;
42590;SDS011;28218;53.342;-6.216;2023-05-25T12:04:30;10.68;;;2.88;;
42590;SDS011;28218;53.342;-6.216;2023-05-25T12:07:01;12.45;;;3.50;;
42590;SDS011;28218;53.342;-6.216;2023-05-25T12:09:30;8.43;;;2.58;;
42590;SDS011;28218;53.342;-6.216;2023-05-25T12:12:01;6.07;;;2.08;;
42590;SDS011;28218;53.342;-6.216;2023-05-25T12:14:31;5.43;;;1.77;;
42590;SDS011;28218;53.342;-6.216;2023-05-25T12:17:01;2.63;;;1.50;;
42590;SDS011;28218;53.342;-6.216;2023-05-25T12:19:29;7.22;;;2.13;;
42590;SDS011;28218;53.342;-6.216;2023-05-25T12:21:58;11.75;;;2.58;;
42590;SDS011;28218;53.342;-6.216;2023-05-25T12:24:27;15.38;;;3.67;;
42590;SDS011;28218;53.342;-6.216;2023-05-25T12:26:55;11.80;;;3.28;;
42590;SDS011;28218;53.342;-6.216;2023-05-25T12:29:26;16.55;;;3.28;;
42590;SDS011;28218;53.342;-6.216;2023-05-25T12:32:00;10.45;;;3.05;;
42590;SDS011;28218;53.342;-6.216;2023-05-25T12:34:29;10.43;;;3.25;;
42590;SDS011;28218;53.342;-6.216;2023-05-25T12:36:57;10.52;;;2.53;;
42590;SDS011;28218;53.342;-6.216;2023-05-25T12:39:33;5.80;;;2.25;;
42590;SDS011;28218;53.342;-6.216;2023-05-25T12:42:10;12.90;;;2.90;;
42590;SDS011;28218;53.342;-6.216;2023-05-25T12:44:42;12.75;;;3.03;;
42590;SDS011;28218;53.342;-6.216;2023-05-25T12:47:13;11.60;;;3.60;;
42590;SDS011;28218;53.342;-6.216;2023-05-25T12:49:42;7.95;;;2.15;;
42590;SDS011;28218;53.342;-6.216;2023-05-25T12:55:04;13.90;;;3.10;;
42590;SDS011;28218;53.342;-6.216;2023-05-25T12:57:45;11.77;;;3.63;;
42590;SDS011;28218;53.342;-6.216;2023-05-25T13:00:20;10.68;;;2.67;;
42590;SDS011;28218;53.342;-6.216;2023-05-25T13:05:18;17.77;;;4.18;;
42590;SDS011;28218;53.342;-6.216;2023-05-25T13:07:47;18.08;;;3.30;;
42590;SDS011;28218;53.342;-6.216;2023-05-25T13:10:16;15.15;;;3.45;;
42590;SDS011;28218;53.342;-6.216;2023-05-25T13:12:45;15.13;;;3.40;;
42590;SDS011;28218;53.342;-6.216;2023-05-25T13:15:14;16.00;;;3.38;;
42590;SDS011;28218;53.342;-6.216;2023-05-25T13:17:45;14.98;;;3.35;;
42590;SDS011;28218;53.342;-6.216;2023-05-25T13:20:14;11.05;;;3.60;;
42590;SDS011;28218;53.342;-6.216;2023-05-25T13:22:43;19.15;;;3.75;;
42590;SDS011;28218;53.342;-6.216;2023-05-25T13:25:13;11.60;;;3.00;;
42590;SDS011;28218;53.342;-6.216;2023-05-25T13:27:42;11.93;;;2.85;;
42590;SDS011;28218;53.342;-6.216;2023-05-25T13:30:11;13.45;;;3.13;;
42590;SDS011;28218;53.342;-6.216;2023-05-25T13:32:40;14.77;;;2.75;;
42590;SDS011;28218;53.342;-6.216;2023-05-25T13:35:10;13.20;;;2.67;;
42590;SDS011;28218;53.342;-6.216;2023-05-25T13:37:44;29.77;;;3.95;;
42590;SDS011;28218;53.342;-6.216;2023-05-25T13:40:13;13.65;;;3.22;;
42590;SDS011;28218;53.342;-6.216;2023-05-25T13:42:41;18.00;;;3.38;;
42590;SDS011;28218;53.342;-6.216;2023-05-25T13:45:10;15.93;;;3.15;;
42590;SDS011;28218;53.342;-6.216;2023-05-25T13:47:39;13.27;;;2.65;;
42590;SDS011;28218;53.342;-6.216;2023-05-25T13:50:11;19.30;;;3.40;;
42590;SDS011;28218;53.342;-6.216;2023-05-25T13:52:39;17.90;;;3.55;;
42590;SDS011;28218;53.342;-6.216;2023-05-25T13:55:07;27.23;;;4.65;;
42590;SDS011;28218;53.342;-6.216;2023-05-25T13:57:35;21.98;;;3.45;;
42590;SDS011;28218;53.342;-6.216;2023-05-25T14:00:04;24.42;;;3.95;;
42590;SDS011;28218;53.342;-6.216;2023-05-25T14:02:34;20.10;;;4.18;;
42590;SDS011;28218;53.342;-6.216;2023-05-25T14:05:03;15.63;;;3.28;;
42590;SDS011;28218;53.342;-6.216;2023-05-25T14:07:33;16.73;;;3.03;;
42590;SDS011;28218;53.342;-6.216;2023-05-25T14:10:01;14.85;;;2.90;;
42590;SDS011;28218;53.342;-6.216;2023-05-25T14:12:31;26.35;;;3.60;;
42590;SDS011;28218;53.342;-6.216;2023-05-25T14:14:59;15.63;;;4.03;;
42590;SDS011;28218;53.342;-6.216;2023-05-25T14:17:27;20.13;;;3.47;;
42590;SDS011;28218;53.342;-6.216;2023-05-25T14:19:55;19.90;;;5.95;;
42590;SDS011;28218;53.342;-6.216;2023-05-25T14:22:24;16.70;;;4.03;;
42590;SDS011;28218;53.342;-6.216;2023-05-25T14:24:54;14.05;;;3.45;;
42590;SDS011;28218;53.342;-6.216;2023-05-25T14:27:22;21.08;;;4.00;;
42590;SDS011;28218;53.342;-6.216;2023-05-25T14:29:51;19.70;;;4.25;;
42590;SDS011;28218;53.342;-6.216;2023-05-25T14:32:19;19.83;;;4.13;;
42590;SDS011;28218;53.342;-6.216;2023-05-25T14:34:47;15.05;;;3.67;;
42590;SDS011;28218;53.342;-6.216;2023-05-25T14:37:16;13.07;;;3.15;;
42590;SDS011;28218;53.342;-6.216;2023-05-25T14:39:44;18.50;;;3.30;;
42590;SDS011;28218;53.342;-6.216;2023-05-25T14:42:14;19.80;;;3.75;;
42590;SDS011;28218;53.342;-6.216;2023-05-25T14:44:42;18.58;;;4.20;;
42590;SDS011;28218;53.342;-6.216;2023-05-25T14:47:10;21.00;;;5.10;;
42590;SDS011;28218;53.342;-6.216;2023-05-25T14:49:39;12.23;;;3.00;;
42590;SDS011;28218;53.342;-6.216;2023-05-25T14:52:07;15.88;;;3.20;;
42590;SDS011;28218;53.342;-6.216;2023-05-25T14:54:35;42.13;;;5.65;;
42590;SDS011;28218;53.342;-6.216;2023-05-25T14:57:09;25.15;;;3.70;;
42590;SDS011;28218;53.342;-6.216;2023-05-25T14:59:39;20.90;;;3.42;;
42590;SDS011;28218;53.342;-6.216;2023-05-25T15:02:07;18.58;;;3.40;;